Time;durP1;ratioP1;P1;durP2;ratioP2;P2;SDS_P1;SDS_P2;PMS_P1;PMS_P2;Temp;Humidity;BMP_temperature;BMP_pressure;BME280_temperature;BME280_humidity;BME280_pressure;Samples;Min_cycle;Max_cycle;Signal;HPM_P1;HPM_P2
2024/01/01 00:00:32;;;;;;;411.87;320.93;;;7.30;99.90;;;;;;5017717;28;20589;-62
2024/01/01 00:02:57;;;;;;;355.47;272.27;;;7.30;99.90;;;;;;5015828;28;20191;-62
2024/01/01 00:05:22;;;;;;;358.80;265.63;;;7.20;99.90;;;;;;5015620;28;20199;-62
2024/01/01 00:07:51;;;;;;;348.23;269.80;;;7.10;99.90;;;;;;4999585;28;20333;-61
2024/01/01 00:10:23;;;;;;;337.50;263.93;;;7.10;99.90;;;;;;5003424;28;20876;-63
2024/01/01 00:12:48;;;;;;;303.27;232.23;;;7.30;99.90;;;;;;5015289;28;20260;-62
2024/01/01 00:15:14;;;;;;;290.67;217.67;;;7.30;99.90;;;;;;5014409;28;20199;-61
2024/01/01 00:17:40;;;;;;;295.43;223.97;;;7.30;99.90;;;;;;5014394;28;20548;-60
2024/01/01 00:20:07;;;;;;;279.27;210.97;;;7.30;99.90;;;;;;5015376;28;20199;-75
2024/01/01 00:22:32;;;;;;;294.37;222.57;;;7.30;99.90;;;;;;5015076;28;20207;-76
2024/01/01 00:24:59;;;;;;;263.47;199.57;;;7.30;99.90;;;;;;5013042;28;20288;-61
2024/01/01 00:27:25;;;;;;;280.93;202.17;;;7.30;99.90;;;;;;5005543;28;20199;-62
2024/01/01 00:29:51;;;;;;;249.07;187.70;;;7.30;99.90;;;;;;5016764;28;20198;-62
2024/01/01 00:32:17;;;;;;;213.57;159.73;;;7.30;99.90;;;;;;5017408;28;20215;-62
2024/01/01 00:34:44;;;;;;;209.03;157.63;;;7.30;99.90;;;;;;5001655;28;20215;-60
2024/01/01 00:37:10;;;;;;;204.00;151.07;;;7.20;99.90;;;;;;5015251;28;20196;-62
2024/01/01 00:39:36;;;;;;;209.07;148.07;;;7.20;99.90;;;;;;5014010;28;20265;-61
2024/01/01 00:42:02;;;;;;;189.17;139.40;;;7.20;99.90;;;;;;4996934;28;20203;-61
2024/01/01 00:44:27;;;;;;;245.83;171.87;;;7.20;99.90;;;;;;4995979;28;20946;-78
2024/01/01 00:46:53;;;;;;;197.97;152.17;;;7.30;99.90;;;;;;5004397;28;20277;-60
2024/01/01 00:49:18;;;;;;;179.93;134.07;;;7.20;99.90;;;;;;5020605;28;20647;-60
2024/01/01 00:51:44;;;;;;;147.60;110.30;;;7.20;99.90;;;;;;5014272;28;20222;-72
2024/01/01 00:54:12;;;;;;;128.83;94.13;;;7.10;99.90;;;;;;5015161;28;20651;-62
2024/01/01 00:56:38;;;;;;;110.20;72.33;;;7.20;99.90;;;;;;4999776;28;20569;-63
2024/01/01 00:59:04;;;;;;;91.40;61.47;;;7.20;99.90;;;;;;5011253;28;20196;-62
2024/01/01 01:01:29;;;;;;;90.60;61.37;;;7.20;99.90;;;;;;5014986;28;20738;-61
2024/01/01 01:03:55;;;;;;;76.73;53.83;;;7.30;99.90;;;;;;5010409;28;20229;-63
2024/01/01 01:06:20;;;;;;;74.93;50.67;;;7.30;99.90;;;;;;5014335;28;20351;-63
2024/01/01 01:08:46;;;;;;;70.23;49.00;;;7.30;99.90;;;;;;4994869;28;20199;-62
2024/01/01 01:11:12;;;;;;;63.83;42.90;;;7.20;99.90;;;;;;5013488;28;20211;-64
2024/01/01 01:13:37;;;;;;;55.47;40.93;;;7.30;99.90;;;;;;5014551;28;20214;-62
2024/01/01 01:16:03;;;;;;;55.17;40.80;;;7.30;99.90;;;;;;5010638;28;20608;-78
2024/01/01 01:18:28;;;;;;;55.33;39.07;;;7.30;99.90;;;;;;4997959;28;20195;-76
2024/01/01 01:20:54;;;;;;;53.00;36.07;;;7.30;99.90;;;;;;5018973;28;20196;-76
2024/01/01 01:23:19;;;;;;;58.87;42.40;;;7.20;99.90;;;;;;5021056;28;20200;-76
2024/01/01 01:25:45;;;;;;;59.63;43.40;;;7.20;99.90;;;;;;5021863;28;20203;-74
2024/01/01 01:28:10;;;;;;;62.47;43.77;;;7.20;99.90;;;;;;5010248;28;20298;-76
2024/01/01 01:30:36;;;;;;;56.57;40.27;;;7.20;99.90;;;;;;5019521;28;20500;-76
2024/01/01 01:33:01;;;;;;;54.63;42.17;;;7.20;99.90;;;;;;4997288;28;20215;-63
2024/01/01 01:35:27;;;;;;;57.20;41.10;;;7.30;99.90;;;;;;5018074;28;20203;-62
2024/01/01 01:37:52;;;;;;;50.83;38.83;;;7.20;99.90;;;;;;5018557;28;20205;-61
2024/01/01 01:40:18;;;;;;;54.80;40.17;;;7.20;99.90;;;;;;5022205;28;20260;-62
2024/01/01 01:42:47;;;;;;;50.63;38.67;;;7.10;99.90;;;;;;5017089;28;20229;-62
2024/01/01 01:45:14;;;;;;;57.03;40.33;;;7.10;99.90;;;;;;5021030;28;20205;-63
2024/01/01 01:47:40;;;;;;;44.63;35.30;;;7.00;99.90;;;;;;5016125;28;20226;-64
2024/01/01 01:50:06;;;;;;;46.13;36.63;;;7.10;99.90;;;;;;5017760;28;20205;-63
2024/01/01 01:52:34;;;;;;;48.17;35.83;;;7.00;99.90;;;;;;4999211;28;20226;-63
2024/01/01 01:55:00;;;;;;;47.93;37.00;;;6.90;99.90;;;;;;5016685;28;20226;-63
2024/01/01 01:57:26;;;;;;;47.57;33.40;;;7.00;99.90;;;;;;5019826;28;20889;-61
2024/01/01 01:59:53;;;;;;;37.83;29.97;;;7.10;99.90;;;;;;5020729;28;20190;-62
2024/01/01 02:02:19;;;;;;;49.20;33.17;;;7.00;99.90;;;;;;5015028;28;20385;-60
2024/01/01 02:04:45;;;;;;;48.10;31.77;;;7.00;99.90;;;;;;5002580;28;20208;-65
2024/01/01 02:07:11;;;;;;;42.60;29.83;;;7.00;99.90;;;;;;5012576;28;20369;-60
2024/01/01 02:09:38;;;;;;;46.97;30.73;;;7.00;99.90;;;;;;5020228;28;20202;-60
2024/01/01 02:12:04;;;;;;;42.37;29.37;;;7.00;99.90;;;;;;5016472;28;20211;-62
2024/01/01 02:14:30;;;;;;;62.73;38.30;;;7.00;99.90;;;;;;5015739;28;20207;-63
2024/01/01 02:16:56;;;;;;;57.83;38.70;;;7.00;99.90;;;;;;5018011;28;20786;-61
2024/01/01 02:19:24;;;;;;;57.43;36.30;;;7.00;99.90;;;;;;5019487;28;20203;-61
2024/01/01 02:21:51;;;;;;;44.10;31.60;;;6.90;99.90;;;;;;4999058;28;20286;-61
2024/01/01 02:24:17;;;;;;;40.87;28.87;;;6.80;99.90;;;;;;5004660;28;20219;-61
2024/01/01 02:26:44;;;;;;;42.67;29.83;;;6.90;99.90;;;;;;5017604;28;20862;-60
2024/01/01 02:29:10;;;;;;;36.73;25.33;;;6.90;99.90;;;;;;5018847;28;20631;-62
2024/01/01 02:31:36;;;;;;;32.80;24.57;;;6.80;99.90;;;;;;5020255;28;20183;-61
2024/01/01 02:34:02;;;;;;;33.83;25.30;;;6.80;99.90;;;;;;5008943;28;20187;-61
2024/01/01 02:36:28;;;;;;;32.33;23.13;;;6.80;99.90;;;;;;5018295;28;20959;-61
2024/01/01 02:38:54;;;;;;;30.13;20.47;;;6.80;99.90;;;;;;4998401;28;20653;-62
2024/01/01 02:41:20;;;;;;;28.13;20.40;;;6.70;99.90;;;;;;5018344;28;20206;-62
2024/01/01 02:43:45;;;;;;;31.63;18.97;;;6.60;99.90;;;;;;5017350;28;20692;-60
2024/01/01 02:46:11;;;;;;;28.50;19.97;;;6.60;99.90;;;;;;5015720;28;20203;-61
2024/01/01 02:48:37;;;;;;;26.57;18.50;;;6.60;99.90;;;;;;5012451;28;20651;-60
2024/01/01 02:51:03;;;;;;;25.53;19.23;;;6.50;99.90;;;;;;5018826;28;20211;-60
2024/01/01 02:53:29;;;;;;;24.97;18.63;;;6.60;99.90;;;;;;5022774;28;20313;-61
2024/01/01 02:55:54;;;;;;;29.20;21.03;;;6.60;99.90;;;;;;5019677;28;20800;-61
2024/01/01 02:58:20;;;;;;;26.23;19.03;;;6.60;99.90;;;;;;5021212;28;20208;-61
2024/01/01 03:00:47;;;;;;;23.83;17.73;;;6.60;99.90;;;;;;5006706;28;20804;-61
2024/01/01 03:03:14;;;;;;;24.80;15.70;;;6.50;99.90;;;;;;5015799;28;20207;-61
2024/01/01 03:05:41;;;;;;;21.30;15.47;;;6.60;99.90;;;;;;5010398;28;20199;-61
2024/01/01 03:08:07;;;;;;;25.60;16.03;;;6.60;99.90;;;;;;5020225;28;20199;-62
2024/01/01 03:10:33;;;;;;;24.60;14.70;;;6.50;99.90;;;;;;5001738;28;20191;-61
2024/01/01 03:12:59;;;;;;;23.83;13.97;;;6.40;99.90;;;;;;5015416;28;20293;-62
2024/01/01 03:15:24;;;;;;;22.03;13.47;;;6.50;99.90;;;;;;5015513;28;20239;-61
2024/01/01 03:17:50;;;;;;;19.20;12.57;;;6.40;99.90;;;;;;5015169;28;20567;-62
2024/01/01 03:20:16;;;;;;;18.60;12.93;;;6.50;99.90;;;;;;5016736;28;20195;-62
2024/01/01 03:22:42;;;;;;;19.67;12.63;;;6.40;99.90;;;;;;5022613;28;20202;-62
2024/01/01 03:25:09;;;;;;;17.97;12.70;;;6.30;99.90;;;;;;5000592;28;20247;-62
2024/01/01 03:27:35;;;;;;;18.00;13.00;;;6.40;99.90;;;;;;4995934;28;20238;-62
2024/01/01 03:30:05;;;;;;;17.13;13.37;;;6.50;99.90;;;;;;4995883;28;21041;-62
2024/01/01 03:32:32;;;;;;;17.30;13.03;;;6.50;99.90;;;;;;5003625;28;20681;-62
2024/01/01 03:34:58;;;;;;;17.67;11.93;;;6.40;99.90;;;;;;4977827;28;20730;-62
2024/01/01 03:37:24;;;;;;;17.40;12.50;;;6.50;99.90;;;;;;4977852;28;20679;-62
2024/01/01 03:39:49;;;;;;;20.00;12.43;;;6.50;99.90;;;;;;5004638;28;20315;-62
2024/01/01 03:42:15;;;;;;;20.53;14.80;;;6.50;99.90;;;;;;4983190;28;20203;-61
2024/01/01 03:44:40;;;;;;;22.17;12.80;;;6.40;99.90;;;;;;5000159;28;20306;-61
2024/01/01 03:47:06;;;;;;;18.40;13.33;;;6.50;99.90;;;;;;4985220;28;20216;-61
2024/01/01 03:49:31;;;;;;;22.30;13.53;;;6.60;99.90;;;;;;4978106;28;20201;-62
2024/01/01 03:51:57;;;;;;;23.53;16.93;;;6.60;99.90;;;;;;4970508;28;20255;-61
2024/01/01 03:54:22;;;;;;;35.33;26.60;;;6.50;99.90;;;;;;5001137;28;20280;-61
2024/01/01 03:56:48;;;;;;;25.73;16.30;;;6.60;99.90;;;;;;4997058;28;20757;-62
2024/01/01 03:59:13;;;;;;;19.87;15.53;;;6.50;99.90;;;;;;4995264;28;20204;-61
2024/01/01 04:01:39;;;;;;;20.20;14.70;;;6.50;99.90;;;;;;4993441;28;20242;-61
2024/01/01 04:04:06;;;;;;;19.17;14.50;;;6.50;99.90;;;;;;4981935;28;20192;-61
2024/01/01 04:06:32;;;;;;;22.80;14.10;;;6.40;99.90;;;;;;4983137;28;20254;-61
2024/01/01 04:08:57;;;;;;;23.03;15.40;;;6.30;99.90;;;;;;4996600;28;20219;-61
2024/01/01 04:11:23;;;;;;;20.20;15.43;;;6.30;99.90;;;;;;4997093;28;20230;-62
2024/01/01 04:13:48;;;;;;;22.00;15.77;;;6.30;99.90;;;;;;5004860;28;20208;-62
2024/01/01 04:16:14;;;;;;;25.13;15.53;;;6.30;99.90;;;;;;5001088;28;20279;-62
2024/01/01 04:18:39;;;;;;;26.17;15.40;;;6.40;99.90;;;;;;5001550;28;20460;-61
2024/01/01 04:21:05;;;;;;;21.37;13.73;;;6.50;99.90;;;;;;4999265;28;20753;-61
2024/01/01 04:23:31;;;;;;;23.53;14.63;;;6.50;99.90;;;;;;4999614;28;20271;-61
2024/01/01 04:25:57;;;;;;;20.50;13.97;;;6.50;99.90;;;;;;4996819;28;20230;-60
2024/01/01 04:28:22;;;;;;;19.97;13.60;;;6.60;99.90;;;;;;5019800;28;20286;-60
2024/01/01 04:30:48;;;;;;;21.07;13.47;;;6.60;99.90;;;;;;5020918;28;20219;-60
2024/01/01 04:33:13;;;;;;;20.20;12.83;;;6.70;99.90;;;;;;5002618;28;20385;-60
2024/01/01 04:35:40;;;;;;;18.40;13.40;;;6.60;99.90;;;;;;5015522;28;20211;-60
2024/01/01 04:38:06;;;;;;;20.10;13.43;;;6.60;99.90;;;;;;5021842;28;20608;-59
2024/01/01 04:40:32;;;;;;;23.50;14.67;;;6.60;99.90;;;;;;5019378;28;20657;-61
2024/01/01 04:42:59;;;;;;;21.37;13.87;;;6.60;99.90;;;;;;5018211;28;20208;-61
2024/01/01 04:45:25;;;;;;;22.10;13.97;;;6.60;99.90;;;;;;5000760;28;20312;-61
2024/01/01 04:47:51;;;;;;;19.30;13.73;;;6.70;99.90;;;;;;5016121;28;20274;-72
2024/01/01 04:50:16;;;;;;;19.77;14.27;;;6.60;99.90;;;;;;5019301;28;20238;-74
2024/01/01 04:52:43;;;;;;;19.57;13.37;;;6.70;99.90;;;;;;5019297;28;20894;-61
2024/01/01 04:55:09;;;;;;;20.47;14.00;;;6.70;99.90;;;;;;5018670;28;20203;-63
2024/01/01 04:57:34;;;;;;;20.83;13.87;;;6.70;99.90;;;;;;5013881;28;20203;-63
2024/01/01 05:00:00;;;;;;;19.70;13.37;;;6.70;99.90;;;;;;5018060;28;20231;-61
2024/01/01 05:02:25;;;;;;;24.47;15.33;;;6.70;99.90;;;;;;5017784;28;20271;-61
2024/01/01 05:04:51;;;;;;;18.97;15.00;;;6.70;99.90;;;;;;5017686;28;20198;-61
2024/01/01 05:07:16;;;;;;;22.83;15.10;;;6.60;99.90;;;;;;5018872;28;20195;-61
2024/01/01 05:09:42;;;;;;;22.87;15.00;;;6.60;99.90;;;;;;5019484;28;20257;-61
2024/01/01 05:12:08;;;;;;;21.30;14.47;;;6.60;99.90;;;;;;5019589;28;20215;-62
2024/01/01 05:14:37;;;;;;;20.17;13.83;;;6.60;99.90;;;;;;5021313;28;20207;-61
2024/01/01 05:17:03;;;;;;;22.93;15.07;;;6.60;99.90;;;;;;5017542;28;20225;-62
2024/01/01 05:19:28;;;;;;;19.00;14.63;;;6.70;99.90;;;;;;4997755;28;20748;-63
2024/01/01 05:21:53;;;;;;;19.87;14.43;;;6.70;99.90;;;;;;4998760;28;20644;-62
2024/01/01 05:24:19;;;;;;;20.93;13.80;;;6.60;99.90;;;;;;5013545;28;20575;-61
2024/01/01 05:26:44;;;;;;;18.97;14.43;;;6.70;99.90;;;;;;5013737;28;20724;-61
2024/01/01 05:29:10;;;;;;;19.97;14.20;;;6.70;99.90;;;;;;5012987;28;20457;-61
2024/01/01 05:31:35;;;;;;;19.80;13.37;;;6.60;99.90;;;;;;5017745;28;20214;-60
2024/01/01 05:34:01;;;;;;;20.30;14.50;;;6.60;99.90;;;;;;5014833;28;20701;-62
2024/01/01 05:36:26;;;;;;;22.03;15.70;;;6.60;99.90;;;;;;5002914;28;20206;-62
2024/01/01 05:38:52;;;;;;;19.03;13.60;;;6.60;99.90;;;;;;5017494;28;20290;-62
2024/01/01 05:41:17;;;;;;;17.27;13.37;;;6.60;99.90;;;;;;5013803;28;20207;-62
2024/01/01 05:43:43;;;;;;;19.63;13.83;;;6.50;99.90;;;;;;5017168;28;20295;-62
2024/01/01 05:46:08;;;;;;;18.70;13.97;;;6.50;99.90;;;;;;5017399;28;20574;-62
2024/01/01 05:48:34;;;;;;;21.63;14.40;;;6.50;99.90;;;;;;5014014;28;20207;-62
2024/01/01 05:51:00;;;;;;;25.30;14.47;;;6.50;99.90;;;;;;5016621;28;20256;-63
2024/01/01 05:53:25;;;;;;;20.43;13.27;;;6.50;99.90;;;;;;4998558;28;20285;-62
2024/01/01 05:55:50;;;;;;;21.00;14.90;;;6.50;99.90;;;;;;4998274;28;20988;-62
2024/01/01 05:58:16;;;;;;;21.03;13.27;;;6.40;99.90;;;;;;5002917;28;20241;-62
2024/01/01 06:00:42;;;;;;;21.50;13.70;;;6.50;99.90;;;;;;5017737;28;20230;-62
2024/01/01 06:03:07;;;;;;;21.53;14.40;;;6.60;99.90;;;;;;5018099;28;20207;-62
2024/01/01 06:05:33;;;;;;;18.63;13.77;;;6.60;99.90;;;;;;5012214;28;20716;-59
2024/01/01 06:08:03;;;;;;;20.37;13.93;;;6.60;99.90;;;;;;5012344;28;20245;-60
2024/01/01 06:10:29;;;;;;;22.10;13.83;;;6.60;99.90;;;;;;5020275;28;20214;-60
2024/01/01 06:12:56;;;;;;;24.03;15.47;;;6.60;99.90;;;;;;5011815;28;20227;-61
2024/01/01 06:15:22;;;;;;;19.30;13.70;;;6.60;99.90;;;;;;5012413;28;20200;-60
2024/01/01 06:17:48;;;;;;;21.37;14.03;;;6.60;99.90;;;;;;5015074;28;20282;-60
2024/01/01 06:20:13;;;;;;;21.17;13.13;;;6.70;99.90;;;;;;5021164;28;20640;-61
2024/01/01 06:22:39;;;;;;;21.97;13.93;;;6.60;99.90;;;;;;5019290;28;20199;-61
2024/01/01 06:25:05;;;;;;;23.07;15.30;;;6.70;99.90;;;;;;5018445;28;20223;-61
2024/01/01 06:27:30;;;;;;;24.90;17.10;;;6.70;99.90;;;;;;5017684;28;20857;-60
2024/01/01 06:29:58;;;;;;;20.27;15.13;;;6.70;99.90;;;;;;5018523;28;20191;-61
2024/01/01 06:32:23;;;;;;;20.00;12.10;;;6.60;99.90;;;;;;5019737;28;20210;-60
2024/01/01 06:34:49;;;;;;;14.03;12.17;;;6.60;99.90;;;;;;5017947;28;20317;-60
2024/01/01 06:37:14;;;;;;;16.47;11.87;;;6.60;99.90;;;;;;5018128;28;20857;-60
2024/01/01 06:39:40;;;;;;;20.63;12.47;;;6.60;99.90;;;;;;5015811;28;20207;-61
2024/01/01 06:42:05;;;;;;;16.67;12.77;;;6.70;99.90;;;;;;5012084;28;20206;-61
2024/01/01 06:44:31;;;;;;;13.07;10.33;;;6.70;99.90;;;;;;5011314;28;20727;-60
2024/01/01 06:46:56;;;;;;;15.57;10.77;;;6.70;99.90;;;;;;4993670;28;20607;-60
2024/01/01 06:49:22;;;;;;;14.17;10.73;;;6.60;99.90;;;;;;5021012;28;20202;-61
2024/01/01 06:51:51;;;;;;;13.17;10.03;;;6.70;99.90;;;;;;4994633;28;20206;-61
2024/01/01 06:54:17;;;;;;;13.83;9.40;;;6.80;99.90;;;;;;4998433;28;20191;-60
2024/01/01 06:56:43;;;;;;;13.70;9.67;;;6.70;99.90;;;;;;5019055;28;20371;-60
2024/01/01 06:59:11;;;;;;;16.20;10.23;;;6.80;99.90;;;;;;5015408;28;20568;-60
2024/01/01 07:01:37;;;;;;;12.80;9.33;;;6.80;99.90;;;;;;5015445;28;20696;-62
2024/01/01 07:04:02;;;;;;;13.20;8.77;;;6.80;99.90;;;;;;5011478;28;20234;-62
2024/01/01 07:06:28;;;;;;;12.57;9.53;;;6.80;99.90;;;;;;5013387;28;20709;-63
2024/01/01 07:08:53;;;;;;;16.20;8.87;;;6.80;99.90;;;;;;5011260;28;20195;-79
2024/01/01 07:11:19;;;;;;;13.57;8.47;;;6.80;99.90;;;;;;4995183;28;21133;-77
2024/01/01 07:13:45;;;;;;;13.03;9.27;;;6.80;99.90;;;;;;5015992;28;20622;-61
2024/01/01 07:16:10;;;;;;;9.93;7.00;;;6.80;99.90;;;;;;5016995;28;20295;-61
2024/01/01 07:18:36;;;;;;;11.83;7.60;;;6.90;99.90;;;;;;5014071;28;20202;-63
2024/01/01 07:21:02;;;;;;;13.43;7.67;;;6.80;99.90;;;;;;5010067;28;20201;-65
2024/01/01 07:23:30;;;;;;;12.33;8.30;;;6.80;99.90;;;;;;5013674;28;20199;-62
2024/01/01 07:25:56;;;;;;;12.27;7.60;;;7.00;99.90;;;;;;5013474;28;20757;-65
2024/01/01 07:28:22;;;;;;;12.70;8.13;;;7.00;99.90;;;;;;4994129;28;20290;-64
2024/01/01 07:30:48;;;;;;;13.50;7.30;;;7.10;99.90;;;;;;5012675;28;20201;-62
2024/01/01 07:33:13;;;;;;;11.40;8.20;;;7.00;99.90;;;;;;5009418;28;20219;-61
2024/01/01 07:35:39;;;;;;;11.30;7.07;;;7.00;99.90;;;;;;5009220;28;20344;-64
2024/01/01 07:38:04;;;;;;;11.27;6.87;;;7.00;99.90;;;;;;4998708;28;20262;-62
2024/01/01 07:40:30;;;;;;;10.17;6.43;;;7.10;99.90;;;;;;5017801;28;20543;-74
2024/01/01 07:42:55;;;;;;;9.97;7.30;;;7.10;99.90;;;;;;5019223;28;20191;-75
2024/01/01 07:45:22;;;;;;;10.47;6.97;;;7.10;99.90;;;;;;5019468;28;20222;-75
2024/01/01 07:47:47;;;;;;;11.10;6.83;;;7.10;99.90;;;;;;5019728;28;20999;-62
2024/01/01 07:50:13;;;;;;;8.37;6.30;;;7.10;99.90;;;;;;5015196;28;20203;-61
2024/01/01 07:52:38;;;;;;;10.50;7.07;;;7.10;99.90;;;;;;5019584;28;20247;-74
2024/01/01 07:55:06;;;;;;;7.17;6.13;;;7.10;99.90;;;;;;4999755;28;20250;-61
2024/01/01 07:57:31;;;;;;;11.10;6.60;;;7.00;99.90;;;;;;5002759;28;20677;-61
2024/01/01 07:59:58;;;;;;;13.77;7.20;;;7.10;99.90;;;;;;5015141;28;20234;-61
2024/01/01 08:02:24;;;;;;;12.53;5.90;;;7.10;99.90;;;;;;5011769;28;20208;-63
2024/01/01 08:04:49;;;;;;;12.33;6.17;;;7.10;99.90;;;;;;4999424;28;20211;-63
2024/01/01 08:07:15;;;;;;;12.50;6.60;;;7.10;99.90;;;;;;5018755;28;20207;-62
2024/01/01 08:09:40;;;;;;;8.73;5.83;;;7.10;99.90;;;;;;5015665;28;20378;-61
2024/01/01 08:12:06;;;;;;;9.03;6.00;;;7.10;99.90;;;;;;5014511;28;20253;-61
2024/01/01 08:14:32;;;;;;;9.60;6.47;;;7.10;99.90;;;;;;5013872;28;20214;-62
2024/01/01 08:16:58;;;;;;;10.13;6.00;;;7.10;99.90;;;;;;5011005;28;20215;-63
2024/01/01 08:19:23;;;;;;;8.40;4.77;;;7.20;99.90;;;;;;5015472;28;20191;-61
2024/01/01 08:21:49;;;;;;;8.77;5.50;;;7.20;99.90;;;;;;5018778;28;20240;-61
2024/01/01 08:24:14;;;;;;;11.10;5.03;;;7.20;99.90;;;;;;5013384;28;20219;-62
2024/01/01 08:26:40;;;;;;;8.10;5.13;;;7.20;99.90;;;;;;5016919;28;20688;-62
2024/01/01 08:29:05;;;;;;;10.57;5.70;;;7.20;99.90;;;;;;5016883;28;20582;-62
2024/01/01 08:31:31;;;;;;;7.00;5.07;;;7.20;99.90;;;;;;5016256;28;20250;-63
2024/01/01 08:33:56;;;;;;;7.63;5.00;;;7.20;99.90;;;;;;5015720;28;20934;-62
2024/01/01 08:36:22;;;;;;;9.40;5.97;;;7.30;99.90;;;;;;5012976;28;20257;-61
2024/01/01 08:38:47;;;;;;;4.73;4.27;;;7.30;99.90;;;;;;5014872;28;20199;-61
2024/01/01 08:41:13;;;;;;;6.63;4.57;;;7.30;99.90;;;;;;5015277;28;20208;-62
2024/01/01 08:43:38;;;;;;;8.03;4.30;;;7.30;99.90;;;;;;5014440;28;20562;-61
2024/01/01 08:46:05;;;;;;;6.57;5.17;;;7.30;99.90;;;;;;5008202;28;20222;-62
2024/01/01 08:48:30;;;;;;;5.70;4.37;;;7.40;99.90;;;;;;5010558;28;20838;-62
2024/01/01 08:50:56;;;;;;;8.17;4.80;;;7.40;99.90;;;;;;5012839;28;20210;-61
2024/01/01 08:53:22;;;;;;;6.90;4.87;;;7.50;99.90;;;;;;5015031;28;20976;-61
2024/01/01 08:55:47;;;;;;;5.93;4.57;;;7.50;99.90;;;;;;5017713;28;20199;-61
2024/01/01 08:58:13;;;;;;;8.93;4.30;;;7.50;99.90;;;;;;5015547;28;20214;-61
2024/01/01 09:00:38;;;;;;;12.30;4.43;;;7.50;99.90;;;;;;5013952;28;20250;-61
2024/01/01 09:03:04;;;;;;;6.93;4.63;;;7.60;99.90;;;;;;5015027;28;20253;-62
2024/01/01 09:05:30;;;;;;;10.40;5.07;;;7.70;99.90;;;;;;5000873;28;20558;-61
2024/01/01 09:07:56;;;;;;;10.40;4.90;;;7.70;99.90;;;;;;5013674;28;20222;-62
2024/01/01 09:10:22;;;;;;;7.47;5.00;;;7.70;99.90;;;;;;5011759;28;20199;-62
2024/01/01 09:12:47;;;;;;;7.20;4.60;;;7.70;99.90;;;;;;5013434;28;20226;-60
2024/01/01 09:15:15;;;;;;;6.00;3.97;;;7.70;99.90;;;;;;5012988;28;20211;-60
2024/01/01 09:17:43;;;;;;;7.20;4.10;;;7.70;99.90;;;;;;4999271;28;20221;-61
2024/01/01 09:20:09;;;;;;;5.57;3.93;;;7.80;99.90;;;;;;5013276;28;20261;-62
2024/01/01 09:22:34;;;;;;;5.77;4.33;;;7.80;99.90;;;;;;5018348;28;20207;-61
2024/01/01 09:25:00;;;;;;;8.47;4.13;;;7.90;99.90;;;;;;4988484;28;20244;-61
2024/01/01 09:27:25;;;;;;;10.00;4.07;;;8.00;99.90;;;;;;4993617;28;20236;-61
2024/01/01 09:29:51;;;;;;;6.20;3.80;;;7.90;99.90;;;;;;4994472;28;20322;-61
2024/01/01 09:32:16;;;;;;;8.53;3.93;;;8.00;99.90;;;;;;5001408;28;20215;-61
2024/01/01 09:34:42;;;;;;;7.93;4.03;;;8.00;99.90;;;;;;4997168;28;20769;-61
2024/01/01 09:37:07;;;;;;;6.23;4.30;;;7.90;99.90;;;;;;5002833;28;20208;-61
2024/01/01 09:39:33;;;;;;;5.73;4.20;;;8.00;99.90;;;;;;5000031;28;21066;-62
2024/01/01 09:42:03;;;;;;;4.50;3.67;;;8.00;99.90;;;;;;4998419;28;20200;-61
2024/01/01 09:44:29;;;;;;;6.70;3.97;;;8.00;99.90;;;;;;5001602;28;20218;-63
2024/01/01 09:46:55;;;;;;;6.47;4.20;;;8.00;99.90;;;;;;4999257;28;20207;-62
2024/01/01 09:49:21;;;;;;;7.83;4.00;;;8.00;99.90;;;;;;4997088;28;20386;-77
2024/01/01 09:51:47;;;;;;;6.37;3.90;;;8.00;99.90;;;;;;4998138;28;20650;-75
2024/01/01 09:54:12;;;;;;;5.80;3.63;;;8.00;99.90;;;;;;4997745;28;20242;-62
2024/01/01 09:56:38;;;;;;;8.57;3.70;;;8.00;99.90;;;;;;5018021;28;20913;-63
2024/01/01 09:59:03;;;;;;;4.77;3.73;;;8.00;99.90;;;;;;4999853;28;20215;-73
2024/01/01 10:01:31;;;;;;;5.20;3.43;;;8.00;99.90;;;;;;5008250;28;20204;-61
2024/01/01 10:04:06;;;;;;;6.17;3.83;;;8.00;99.90;;;;;;4992560;28;20198;-61
2024/01/01 10:06:34;;;;;;;6.73;3.97;;;8.10;99.90;;;;;;4999539;28;20199;-60
2024/01/01 10:09:10;;;;;;;6.77;3.83;;;8.10;99.90;;;;;;5000637;28;20208;-61
2024/01/01 10:11:41;;;;;;;7.07;3.50;;;8.10;99.90;;;;;;4997621;28;20728;-62
2024/01/01 10:14:07;;;;;;;7.87;3.80;;;8.10;99.90;;;;;;4996016;28;20208;-62
2024/01/01 10:16:33;;;;;;;5.73;4.03;;;8.20;99.90;;;;;;5000920;28;20199;-62
2024/01/01 10:19:01;;;;;;;8.30;4.07;;;8.20;99.90;;;;;;4996718;28;20200;-61
2024/01/01 10:21:31;;;;;;;7.27;4.60;;;8.30;99.90;;;;;;5013421;28;20246;-62
2024/01/01 10:23:58;;;;;;;5.87;3.60;;;8.30;99.90;;;;;;5005989;28;20230;-62
2024/01/01 10:26:24;;;;;;;6.87;4.50;;;8.30;99.90;;;;;;5016870;28;20925;-62
2024/01/01 10:28:49;;;;;;;8.97;4.10;;;8.20;99.90;;;;;;5019000;28;20195;-62
2024/01/01 10:31:15;;;;;;;8.13;3.70;;;8.20;99.90;;;;;;5014693;28;20208;-62
2024/01/01 10:33:42;;;;;;;4.97;3.50;;;8.30;99.90;;;;;;5020857;28;20221;-62
2024/01/01 10:36:08;;;;;;;6.53;4.70;;;8.20;99.90;;;;;;5016625;28;20194;-61
2024/01/01 10:38:35;;;;;;;4.80;3.47;;;8.30;99.90;;;;;;5011049;28;20290;-61
2024/01/01 10:41:02;;;;;;;3.63;3.20;;;8.20;99.90;;;;;;5019740;28;20248;-61
2024/01/01 10:43:28;;;;;;;4.30;3.77;;;8.20;99.90;;;;;;4995358;28;20199;-61
2024/01/01 10:46:04;;;;;;;7.40;3.77;;;8.20;99.90;;;;;;5016311;28;20214;-61
2024/01/01 10:48:33;;;;;;;7.63;3.70;;;8.20;99.90;;;;;;5015480;28;20187;-62
2024/01/01 10:51:28;;;;;;;6.90;3.83;;;8.20;99.90;;;;;;5011617;28;20751;-62
2024/01/01 10:54:31;;;;;;;5.00;3.47;;;8.20;99.90;;;;;;5013394;28;20221;-62
2024/01/01 10:57:05;;;;;;;5.10;4.07;;;8.30;99.90;;;;;;5013884;28;20214;-60
2024/01/01 10:59:46;;;;;;;6.33;3.70;;;8.30;99.90;;;;;;5017813;28;20200;-60
2024/01/01 11:02:11;;;;;;;6.27;2.93;;;8.30;99.90;;;;;;5007975;28;20199;-62
2024/01/01 11:04:37;;;;;;;11.50;4.30;;;8.40;99.90;;;;;;5015738;28;20692;-61
2024/01/01 11:07:02;;;;;;;5.77;3.63;;;8.40;99.90;;;;;;5011001;28;20206;-61
2024/01/01 11:09:29;;;;;;;6.60;3.30;;;8.40;99.90;;;;;;5013019;28;20670;-62
2024/01/01 11:11:55;;;;;;;7.27;3.37;;;8.40;99.90;;;;;;5015377;28;20203;-61
2024/01/01 11:14:31;;;;;;;5.13;3.30;;;8.30;99.90;;;;;;5018097;28;20191;-63
2024/01/01 11:17:01;;;;;;;7.67;3.60;;;8.30;99.90;;;;;;4997404;28;20299;-62
2024/01/01 11:19:36;;;;;;;6.27;3.37;;;8.30;99.90;;;;;;5016795;28;20214;-61
2024/01/01 11:22:20;;;;;;;6.83;4.37;;;8.40;99.90;;;;;;5020419;28;20199;-61
2024/01/01 11:24:47;;;;;;;7.97;4.00;;;8.50;99.90;;;;;;5021824;28;20219;-61
2024/01/01 11:27:32;;;;;;;4.30;3.47;;;8.60;99.90;;;;;;5018714;28;20200;-61
2024/01/01 11:30:03;;;;;;;7.30;4.00;;;8.60;99.90;;;;;;4999567;28;20691;-62
2024/01/01 11:32:29;;;;;;;4.97;3.53;;;8.60;99.90;;;;;;5021568;28;20213;-63
2024/01/01 11:35:15;;;;;;;5.63;3.53;;;8.50;99.90;;;;;;5019643;28;20199;-62
2024/01/01 11:37:43;;;;;;;3.37;2.67;;;8.50;99.90;;;;;;5005474;28;20202;-61
2024/01/01 11:40:10;;;;;;;6.93;4.17;;;8.50;99.90;;;;;;5022319;28;20202;-61
2024/01/01 11:42:36;;;;;;;7.80;3.67;;;8.50;99.90;;;;;;5019850;28;20195;-62
2024/01/01 11:45:16;;;;;;;6.70;3.53;;;8.60;99.90;;;;;;5021289;28;20913;-61
2024/01/01 11:47:43;;;;;;;5.40;3.63;;;8.60;99.90;;;;;;4999443;28;20207;-61
2024/01/01 11:50:09;;;;;;;5.23;3.67;;;8.60;99.90;;;;;;5016754;28;21006;-61
2024/01/01 11:52:35;;;;;;;7.73;2.97;;;8.60;99.90;;;;;;5020994;28;20219;-61
2024/01/01 11:55:01;;;;;;;8.87;4.47;;;8.60;99.90;;;;;;5004729;28;20214;-61
2024/01/01 11:57:26;;;;;;;6.60;3.43;;;8.60;99.90;;;;;;5022529;28;20760;-61
2024/01/01 11:59:52;;;;;;;5.53;3.87;;;8.60;99.90;;;;;;4996963;28;20235;-62
2024/01/01 12:02:19;;;;;;;10.67;3.73;;;8.60;99.90;;;;;;5021276;28;20218;-62
2024/01/01 12:04:46;;;;;;;8.00;3.93;;;8.70;99.90;;;;;;5020449;28;20257;-61
2024/01/01 12:07:26;;;;;;;6.87;3.57;;;8.80;99.90;;;;;;5022663;28;20217;-61
2024/01/01 12:10:00;;;;;;;6.33;3.27;;;8.80;99.90;;;;;;5021566;28;20246;-61
2024/01/01 12:12:26;;;;;;;8.87;3.13;;;8.80;99.90;;;;;;5020306;28;20688;-61
2024/01/01 12:14:51;;;;;;;8.93;3.57;;;8.80;99.90;;;;;;5022403;28;20241;-62
2024/01/01 12:17:17;;;;;;;5.73;3.70;;;8.70;99.90;;;;;;5000489;28;20589;-61
2024/01/01 12:19:43;;;;;;;4.43;2.97;;;8.80;99.90;;;;;;5016155;28;20257;-61
2024/01/01 12:22:20;;;;;;;5.20;2.87;;;8.90;99.90;;;;;;5021121;28;20729;-60
2024/01/01 12:24:56;;;;;;;7.10;3.40;;;9.00;99.90;;;;;;5021552;28;20225;-60
2024/01/01 12:27:22;;;;;;;4.00;3.30;;;9.00;99.90;;;;;;5021450;28;20205;-61
2024/01/01 12:29:51;;;;;;;8.30;3.63;;;9.00;99.90;;;;;;5019242;28;20207;-61
2024/01/01 12:32:17;;;;;;;6.67;3.03;;;9.10;99.90;;;;;;5023011;28;20330;-61
2024/01/01 12:34:42;;;;;;;6.93;3.00;;;9.00;99.90;;;;;;4996380;28;20231;-60
2024/01/01 12:37:10;;;;;;;6.60;3.30;;;9.00;99.90;;;;;;5011115;28;20200;-73
2024/01/01 12:39:36;;;;;;;7.47;2.87;;;9.00;99.90;;;;;;5015289;28;20198;-61